sensor_id;sensor_type;location;lat;lon;timestamp;P1;durP1;ratioP1;P2;durP2;ratioP2
35648;SDS011;21768;48.562;13.414;2023-09-18T00:00:20;8.10;;;4.75;;
35648;SDS011;21768;48.562;13.414;2023-09-18T00:02:46;6.20;;;4.45;;
35648;SDS011;21768;48.562;13.414;2023-09-18T00:05:12;11.15;;;4.53;;
35648;SDS011;21768;48.562;13.414;2023-09-18T00:07:43;6.85;;;4.80;;
35648;SDS011;21768;48.562;13.414;2023-09-18T00:10:13;7.57;;;4.55;;
35648;SDS011;21768;48.562;13.414;2023-09-18T00:12:39;6.55;;;4.70;;
35648;SDS011;21768;48.562;13.414;2023-09-18T00:15:05;6.50;;;4.45;;
35648;SDS011;21768;48.562;13.414;2023-09-18T00:17:33;7.95;;;4.55;;
35648;SDS011;21768;48.562;13.414;2023-09-18T00:19:59;11.02;;;4.70;;
35648;SDS011;21768;48.562;13.414;2023-09-18T00:22:25;11.73;;;4.82;;
35648;SDS011;21768;48.562;13.414;2023-09-18T00:24:50;7.35;;;4.45;;
35648;SDS011;21768;48.562;13.414;2023-09-18T00:27:15;5.97;;;4.05;;
35648;SDS011;21768;48.562;13.414;2023-09-18T00:29:41;7.25;;;4.40;;
35648;SDS011;21768;48.562;13.414;2023-09-18T00:32:07;5.57;;;4.57;;
35648;SDS011;21768;48.562;13.414;2023-09-18T00:34:32;9.32;;;4.60;;
35648;SDS011;21768;48.562;13.414;2023-09-18T00:36:58;6.00;;;4.63;;
35648;SDS011;21768;48.562;13.414;2023-09-18T00:39:24;5.93;;;4.50;;
35648;SDS011;21768;48.562;13.414;2023-09-18T00:41:50;9.90;;;4.90;;
35648;SDS011;21768;48.562;13.414;2023-09-18T00:44:19;7.63;;;4.43;;
35648;SDS011;21768;48.562;13.414;2023-09-18T00:46:48;11.13;;;4.65;;
35648;SDS011;21768;48.562;13.414;2023-09-18T00:49:15;5.88;;;4.78;;
35648;SDS011;21768;48.562;13.414;2023-09-18T00:51:42;5.85;;;4.35;;
35648;SDS011;21768;48.562;13.414;2023-09-18T00:54:09;7.07;;;4.85;;
35648;SDS011;21768;48.562;13.414;2023-09-18T00:56:36;6.00;;;4.50;;
35648;SDS011;21768;48.562;13.414;2023-09-18T00:59:01;6.10;;;4.68;;
35648;SDS011;21768;48.562;13.414;2023-09-18T01:01:28;8.02;;;4.38;;
35648;SDS011;21768;48.562;13.414;2023-09-18T01:03:54;6.82;;;4.82;;
35648;SDS011;21768;48.562;13.414;2023-09-18T01:06:21;9.00;;;5.03;;
35648;SDS011;21768;48.562;13.414;2023-09-18T01:08:52;7.85;;;4.78;;
35648;SDS011;21768;48.562;13.414;2023-09-18T01:11:22;10.27;;;4.28;;
35648;SDS011;21768;48.562;13.414;2023-09-18T01:13:53;7.60;;;5.25;;
35648;SDS011;21768;48.562;13.414;2023-09-18T01:16:34;6.63;;;4.65;;
35648;SDS011;21768;48.562;13.414;2023-09-18T01:19:37;10.68;;;4.43;;
35648;SDS011;21768;48.562;13.414;2023-09-18T01:22:08;9.98;;;5.40;;
35648;SDS011;21768;48.562;13.414;2023-09-18T01:24:35;6.90;;;5.10;;
35648;SDS011;21768;48.562;13.414;2023-09-18T01:27:02;6.57;;;4.65;;
35648;SDS011;21768;48.562;13.414;2023-09-18T01:29:29;8.05;;;5.05;;
35648;SDS011;21768;48.562;13.414;2023-09-18T01:31:55;6.78;;;4.47;;
35648;SDS011;21768;48.562;13.414;2023-09-18T01:34:31;10.40;;;5.10;;
35648;SDS011;21768;48.562;13.414;2023-09-18T01:37:01;13.88;;;5.78;;
35648;SDS011;21768;48.562;13.414;2023-09-18T01:39:28;6.53;;;4.95;;
35648;SDS011;21768;48.562;13.414;2023-09-18T01:41:59;8.82;;;5.85;;
35648;SDS011;21768;48.562;13.414;2023-09-18T01:44:27;7.95;;;5.05;;
35648;SDS011;21768;48.562;13.414;2023-09-18T01:46:53;9.70;;;5.25;;
35648;SDS011;21768;48.562;13.414;2023-09-18T01:49:31;8.10;;;5.68;;
35648;SDS011;21768;48.562;13.414;2023-09-18T01:51:57;5.85;;;4.80;;
35648;SDS011;21768;48.562;13.414;2023-09-18T01:54:23;7.60;;;5.38;;
35648;SDS011;21768;48.562;13.414;2023-09-18T01:56:49;13.98;;;5.20;;
35648;SDS011;21768;48.562;13.414;2023-09-18T01:59:15;6.90;;;4.70;;
35648;SDS011;21768;48.562;13.414;2023-09-18T02:01:41;8.48;;;4.90;;
35648;SDS011;21768;48.562;13.414;2023-09-18T02:04:06;9.30;;;5.50;;
35648;SDS011;21768;48.562;13.414;2023-09-18T02:06:31;7.55;;;5.20;;
35648;SDS011;21768;48.562;13.414;2023-09-18T02:08:57;9.93;;;4.93;;
35648;SDS011;21768;48.562;13.414;2023-09-18T02:11:22;8.63;;;5.28;;
35648;SDS011;21768;48.562;13.414;2023-09-18T02:13:47;7.85;;;5.43;;
35648;SDS011;21768;48.562;13.414;2023-09-18T02:16:13;10.95;;;5.10;;
35648;SDS011;21768;48.562;13.414;2023-09-18T02:18:38;9.93;;;5.82;;
35648;SDS011;21768;48.562;13.414;2023-09-18T02:21:03;9.00;;;5.80;;
35648;SDS011;21768;48.562;13.414;2023-09-18T02:23:29;10.07;;;5.47;;
35648;SDS011;21768;48.562;13.414;2023-09-18T02:25:58;11.43;;;5.00;;
35648;SDS011;21768;48.562;13.414;2023-09-18T02:28:23;16.20;;;5.80;;
35648;SDS011;21768;48.562;13.414;2023-09-18T02:30:49;8.50;;;5.40;;
35648;SDS011;21768;48.562;13.414;2023-09-18T02:33:15;9.20;;;5.20;;
35648;SDS011;21768;48.562;13.414;2023-09-18T02:35:40;9.07;;;5.30;;
35648;SDS011;21768;48.562;13.414;2023-09-18T02:38:06;11.77;;;5.13;;
35648;SDS011;21768;48.562;13.414;2023-09-18T02:40:31;13.57;;;5.18;;
35648;SDS011;21768;48.562;13.414;2023-09-18T02:42:57;15.15;;;4.97;;
35648;SDS011;21768;48.562;13.414;2023-09-18T02:45:22;10.52;;;5.60;;
35648;SDS011;21768;48.562;13.414;2023-09-18T02:47:48;6.57;;;5.25;;
35648;SDS011;21768;48.562;13.414;2023-09-18T02:50:13;10.40;;;5.57;;
35648;SDS011;21768;48.562;13.414;2023-09-18T02:52:38;9.82;;;5.57;;
35648;SDS011;21768;48.562;13.414;2023-09-18T02:55:04;13.23;;;5.60;;
35648;SDS011;21768;48.562;13.414;2023-09-18T02:57:30;11.30;;;5.10;;
35648;SDS011;21768;48.562;13.414;2023-09-18T02:59:55;6.70;;;5.07;;
35648;SDS011;21768;48.562;13.414;2023-09-18T03:02:20;8.82;;;5.53;;
35648;SDS011;21768;48.562;13.414;2023-09-18T03:04:46;12.23;;;5.50;;
35648;SDS011;21768;48.562;13.414;2023-09-18T03:07:14;10.88;;;5.15;;
35648;SDS011;21768;48.562;13.414;2023-09-18T03:09:41;8.48;;;4.82;;
35648;SDS011;21768;48.562;13.414;2023-09-18T03:12:06;7.25;;;5.22;;
35648;SDS011;21768;48.562;13.414;2023-09-18T03:14:32;10.10;;;5.40;;
35648;SDS011;21768;48.562;13.414;2023-09-18T03:16:57;8.55;;;5.18;;
35648;SDS011;21768;48.562;13.414;2023-09-18T03:19:23;6.30;;;5.40;;
35648;SDS011;21768;48.562;13.414;2023-09-18T03:21:49;7.85;;;5.35;;
35648;SDS011;21768;48.562;13.414;2023-09-18T03:24:15;7.28;;;4.78;;
35648;SDS011;21768;48.562;13.414;2023-09-18T03:26:40;7.55;;;5.43;;
35648;SDS011;21768;48.562;13.414;2023-09-18T03:29:06;8.82;;;5.15;;
35648;SDS011;21768;48.562;13.414;2023-09-18T03:31:31;9.50;;;4.97;;
35648;SDS011;21768;48.562;13.414;2023-09-18T03:33:56;7.10;;;5.10;;
35648;SDS011;21768;48.562;13.414;2023-09-18T03:36:22;11.75;;;5.40;;
35648;SDS011;21768;48.562;13.414;2023-09-18T03:38:50;9.55;;;5.10;;
35648;SDS011;21768;48.562;13.414;2023-09-18T03:41:15;7.90;;;4.90;;
35648;SDS011;21768;48.562;13.414;2023-09-18T03:43:41;8.32;;;5.10;;
35648;SDS011;21768;48.562;13.414;2023-09-18T03:46:06;14.75;;;4.88;;
35648;SDS011;21768;48.562;13.414;2023-09-18T03:48:33;9.38;;;5.10;;
35648;SDS011;21768;48.562;13.414;2023-09-18T03:51:05;7.38;;;5.05;;
35648;SDS011;21768;48.562;13.414;2023-09-18T03:53:34;9.02;;;4.90;;
35648;SDS011;21768;48.562;13.414;2023-09-18T03:56:00;6.75;;;5.50;;
35648;SDS011;21768;48.562;13.414;2023-09-18T03:58:26;10.10;;;5.03;;
35648;SDS011;21768;48.562;13.414;2023-09-18T04:00:51;8.70;;;5.38;;
35648;SDS011;21768;48.562;13.414;2023-09-18T04:03:17;7.70;;;5.63;;
35648;SDS011;21768;48.562;13.414;2023-09-18T04:05:42;7.50;;;4.75;;
35648;SDS011;21768;48.562;13.414;2023-09-18T04:08:08;5.90;;;4.93;;
35648;SDS011;21768;48.562;13.414;2023-09-18T04:10:34;7.95;;;4.70;;
35648;SDS011;21768;48.562;13.414;2023-09-18T04:12:59;8.75;;;4.88;;
35648;SDS011;21768;48.562;13.414;2023-09-18T04:15:25;8.07;;;5.25;;
35648;SDS011;21768;48.562;13.414;2023-09-18T04:17:50;6.53;;;4.93;;
35648;SDS011;21768;48.562;13.414;2023-09-18T04:20:16;8.32;;;5.05;;
35648;SDS011;21768;48.562;13.414;2023-09-18T04:22:45;8.88;;;4.95;;
35648;SDS011;21768;48.562;13.414;2023-09-18T04:25:15;14.02;;;9.02;;
35648;SDS011;21768;48.562;13.414;2023-09-18T04:27:41;8.27;;;5.70;;
35648;SDS011;21768;48.562;13.414;2023-09-18T04:30:07;7.78;;;5.28;;
35648;SDS011;21768;48.562;13.414;2023-09-18T04:32:35;7.60;;;5.30;;
35648;SDS011;21768;48.562;13.414;2023-09-18T04:35:05;8.73;;;5.35;;
35648;SDS011;21768;48.562;13.414;2023-09-18T04:37:31;6.82;;;5.60;;
35648;SDS011;21768;48.562;13.414;2023-09-18T04:39:59;6.15;;;5.07;;
35648;SDS011;21768;48.562;13.414;2023-09-18T04:42:24;7.38;;;4.93;;
35648;SDS011;21768;48.562;13.414;2023-09-18T04:44:49;11.85;;;5.78;;
35648;SDS011;21768;48.562;13.414;2023-09-18T04:47:15;14.63;;;5.30;;
35648;SDS011;21768;48.562;13.414;2023-09-18T04:49:40;9.82;;;5.32;;
35648;SDS011;21768;48.562;13.414;2023-09-18T04:52:06;9.88;;;5.55;;
35648;SDS011;21768;48.562;13.414;2023-09-18T04:54:31;11.30;;;5.22;;
35648;SDS011;21768;48.562;13.414;2023-09-18T04:56:56;7.22;;;5.43;;
35648;SDS011;21768;48.562;13.414;2023-09-18T04:59:22;8.77;;;5.53;;
35648;SDS011;21768;48.562;13.414;2023-09-18T05:01:47;7.28;;;5.00;;
35648;SDS011;21768;48.562;13.414;2023-09-18T05:04:13;7.80;;;5.68;;
35648;SDS011;21768;48.562;13.414;2023-09-18T05:06:39;7.47;;;4.95;;
35648;SDS011;21768;48.562;13.414;2023-09-18T05:09:05;9.93;;;5.43;;
35648;SDS011;21768;48.562;13.414;2023-09-18T05:11:31;8.75;;;5.47;;
35648;SDS011;21768;48.562;13.414;2023-09-18T05:13:56;7.88;;;5.43;;
35648;SDS011;21768;48.562;13.414;2023-09-18T05:16:21;8.82;;;5.63;;
35648;SDS011;21768;48.562;13.414;2023-09-18T05:18:47;7.53;;;5.35;;
35648;SDS011;21768;48.562;13.414;2023-09-18T05:21:12;8.63;;;5.47;;
35648;SDS011;21768;48.562;13.414;2023-09-18T05:23:38;8.20;;;6.18;;
35648;SDS011;21768;48.562;13.414;2023-09-18T05:26:03;7.82;;;5.25;;
35648;SDS011;21768;48.562;13.414;2023-09-18T05:28:28;14.10;;;5.95;;
35648;SDS011;21768;48.562;13.414;2023-09-18T05:30:54;7.22;;;5.78;;
35648;SDS011;21768;48.562;13.414;2023-09-18T05:33:20;12.57;;;5.57;;
35648;SDS011;21768;48.562;13.414;2023-09-18T05:35:45;11.05;;;5.50;;
35648;SDS011;21768;48.562;13.414;2023-09-18T05:38:11;10.45;;;6.10;;
35648;SDS011;21768;48.562;13.414;2023-09-18T05:40:38;7.03;;;5.53;;
35648;SDS011;21768;48.562;13.414;2023-09-18T05:43:04;13.43;;;5.72;;
35648;SDS011;21768;48.562;13.414;2023-09-18T05:45:30;10.02;;;6.10;;
35648;SDS011;21768;48.562;13.414;2023-09-18T05:47:57;11.50;;;5.68;;
35648;SDS011;21768;48.562;13.414;2023-09-18T05:50:28;8.57;;;5.35;;
35648;SDS011;21768;48.562;13.414;2023-09-18T05:52:55;7.68;;;5.32;;
35648;SDS011;21768;48.562;13.414;2023-09-18T05:55:24;10.90;;;6.25;;
35648;SDS011;21768;48.562;13.414;2023-09-18T05:57:50;8.25;;;6.00;;
35648;SDS011;21768;48.562;13.414;2023-09-18T06:00:15;7.07;;;5.68;;
35648;SDS011;21768;48.562;13.414;2023-09-18T06:02:43;9.15;;;5.70;;
35648;SDS011;21768;48.562;13.414;2023-09-18T06:05:08;12.10;;;5.82;;
35648;SDS011;21768;48.562;13.414;2023-09-18T06:07:36;8.02;;;5.63;;
35648;SDS011;21768;48.562;13.414;2023-09-18T06:10:01;7.80;;;5.63;;
35648;SDS011;21768;48.562;13.414;2023-09-18T06:12:27;7.18;;;5.63;;
35648;SDS011;21768;48.562;13.414;2023-09-18T06:14:52;9.05;;;5.20;;
35648;SDS011;21768;48.562;13.414;2023-09-18T06:17:18;12.50;;;5.28;;
35648;SDS011;21768;48.562;13.414;2023-09-18T06:19:44;6.90;;;4.93;;
35648;SDS011;21768;48.562;13.414;2023-09-18T06:22:10;7.88;;;5.32;;
35648;SDS011;21768;48.562;13.414;2023-09-18T06:24:36;7.68;;;5.70;;
35648;SDS011;21768;48.562;13.414;2023-09-18T06:27:02;8.40;;;5.30;;
35648;SDS011;21768;48.562;13.414;2023-09-18T06:29:29;8.77;;;5.30;;
35648;SDS011;21768;48.562;13.414;2023-09-18T06:31:55;10.30;;;5.88;;
35648;SDS011;21768;48.562;13.414;2023-09-18T06:34:21;8.00;;;5.22;;
35648;SDS011;21768;48.562;13.414;2023-09-18T06:36:46;7.38;;;4.72;;
35648;SDS011;21768;48.562;13.414;2023-09-18T06:39:11;7.30;;;5.28;;
35648;SDS011;21768;48.562;13.414;2023-09-18T06:41:37;7.85;;;5.10;;
35648;SDS011;21768;48.562;13.414;2023-09-18T06:44:02;8.32;;;5.10;;
35648;SDS011;21768;48.562;13.414;2023-09-18T06:46:31;10.05;;;5.50;;
35648;SDS011;21768;48.562;13.414;2023-09-18T06:48:56;9.02;;;4.75;;
35648;SDS011;21768;48.562;13.414;2023-09-18T06:51:28;6.00;;;4.80;;
35648;SDS011;21768;48.562;13.414;2023-09-18T06:53:53;13.88;;;5.20;;
35648;SDS011;21768;48.562;13.414;2023-09-18T06:56:19;8.68;;;4.65;;
35648;SDS011;21768;48.562;13.414;2023-09-18T06:58:45;9.00;;;5.07;;
35648;SDS011;21768;48.562;13.414;2023-09-18T07:01:12;5.95;;;4.97;;
35648;SDS011;21768;48.562;13.414;2023-09-18T07:03:38;7.13;;;4.95;;
35648;SDS011;21768;48.562;13.414;2023-09-18T07:06:05;6.32;;;4.57;;
35648;SDS011;21768;48.562;13.414;2023-09-18T07:08:31;6.28;;;4.53;;
35648;SDS011;21768;48.562;13.414;2023-09-18T07:10:57;7.55;;;4.35;;
35648;SDS011;21768;48.562;13.414;2023-09-18T07:13:23;6.38;;;4.47;;
35648;SDS011;21768;48.562;13.414;2023-09-18T07:15:48;6.55;;;4.53;;
35648;SDS011;21768;48.562;13.414;2023-09-18T07:18:14;7.45;;;5.00;;
35648;SDS011;21768;48.562;13.414;2023-09-18T07:20:40;12.82;;;4.70;;
35648;SDS011;21768;48.562;13.414;2023-09-18T07:23:06;6.00;;;4.30;;
35648;SDS011;21768;48.562;13.414;2023-09-18T07:25:31;9.85;;;4.25;;
35648;SDS011;21768;48.562;13.414;2023-09-18T07:27:57;6.18;;;4.32;;
35648;SDS011;21768;48.562;13.414;2023-09-18T07:30:22;7.43;;;4.20;;
35648;SDS011;21768;48.562;13.414;2023-09-18T07:32:52;12.43;;;5.20;;
35648;SDS011;21768;48.562;13.414;2023-09-18T07:35:21;5.38;;;4.55;;
35648;SDS011;21768;48.562;13.414;2023-09-18T07:37:47;8.02;;;4.57;;
35648;SDS011;21768;48.562;13.414;2023-09-18T07:40:13;7.60;;;4.38;;
35648;SDS011;21768;48.562;13.414;2023-09-18T07:42:40;5.15;;;4.05;;
35648;SDS011;21768;48.562;13.414;2023-09-18T07:45:06;7.63;;;4.90;;
35648;SDS011;21768;48.562;13.414;2023-09-18T07:47:32;7.75;;;4.40;;
35648;SDS011;21768;48.562;13.414;2023-09-18T07:49:57;9.30;;;4.65;;
35648;SDS011;21768;48.562;13.414;2023-09-18T07:52:22;13.00;;;4.68;;
35648;SDS011;21768;48.562;13.414;2023-09-18T07:54:48;11.45;;;5.55;;
35648;SDS011;21768;48.562;13.414;2023-09-18T07:57:13;6.65;;;3.95;;
35648;SDS011;21768;48.562;13.414;2023-09-18T07:59:38;6.10;;;4.03;;
35648;SDS011;21768;48.562;13.414;2023-09-18T08:02:05;5.45;;;4.55;;
35648;SDS011;21768;48.562;13.414;2023-09-18T08:04:31;5.35;;;4.07;;
35648;SDS011;21768;48.562;13.414;2023-09-18T08:06:57;5.55;;;4.32;;
35648;SDS011;21768;48.562;13.414;2023-09-18T08:09:22;6.00;;;4.38;;
35648;SDS011;21768;48.562;13.414;2023-09-18T08:11:48;7.38;;;4.28;;
35648;SDS011;21768;48.562;13.414;2023-09-18T08:14:15;4.18;;;3.75;;
35648;SDS011;21768;48.562;13.414;2023-09-18T08:16:40;6.18;;;4.05;;
35648;SDS011;21768;48.562;13.414;2023-09-18T08:19:06;4.95;;;3.70;;
35648;SDS011;21768;48.562;13.414;2023-09-18T08:21:32;5.95;;;4.00;;
35648;SDS011;21768;48.562;13.414;2023-09-18T08:23:57;7.55;;;4.15;;
35648;SDS011;21768;48.562;13.414;2023-09-18T08:26:23;5.68;;;3.58;;
35648;SDS011;21768;48.562;13.414;2023-09-18T08:28:50;6.93;;;4.05;;
35648;SDS011;21768;48.562;13.414;2023-09-18T08:31:16;4.80;;;3.78;;
35648;SDS011;21768;48.562;13.414;2023-09-18T08:33:41;6.53;;;3.90;;
35648;SDS011;21768;48.562;13.414;2023-09-18T08:36:08;7.22;;;3.53;;
35648;SDS011;21768;48.562;13.414;2023-09-18T08:38:33;3.97;;;3.58;;
35648;SDS011;21768;48.562;13.414;2023-09-18T08:40:59;4.65;;;3.47;;
35648;SDS011;21768;48.562;13.414;2023-09-18T08:43:24;5.97;;;4.03;;
35648;SDS011;21768;48.562;13.414;2023-09-18T08:45:51;9.23;;;3.75;;
35648;SDS011;21768;48.562;13.414;2023-09-18T08:48:19;4.53;;;3.90;;
35648;SDS011;21768;48.562;13.414;2023-09-18T08:50:45;6.65;;;4.50;;
35648;SDS011;21768;48.562;13.414;2023-09-18T08:53:12;8.77;;;4.63;;
35648;SDS011;21768;48.562;13.414;2023-09-18T08:55:37;6.00;;;4.20;;
35648;SDS011;21768;48.562;13.414;2023-09-18T08:58:03;6.28;;;4.22;;
35648;SDS011;21768;48.562;13.414;2023-09-18T09:00:28;5.78;;;4.13;;
35648;SDS011;21768;48.562;13.414;2023-09-18T09:02:54;5.30;;;3.90;;
35648;SDS011;21768;48.562;13.414;2023-09-18T09:05:22;7.57;;;3.90;;
35648;SDS011;21768;48.562;13.414;2023-09-18T09:07:49;7.88;;;4.18;;
35648;SDS011;21768;48.562;13.414;2023-09-18T09:10:15;11.32;;;4.20;;
35648;SDS011;21768;48.562;13.414;2023-09-18T09:12:53;5.78;;;3.63;;
35648;SDS011;21768;48.562;13.414;2023-09-18T09:15:25;9.05;;;4.20;;
35648;SDS011;21768;48.562;13.414;2023-09-18T09:20:31;9.35;;;4.00;;
35648;SDS011;21768;48.562;13.414;2023-09-18T09:23:01;14.52;;;3.75;;
35648;SDS011;21768;48.562;13.414;2023-09-18T09:25:29;6.15;;;3.83;;
35648;SDS011;21768;48.562;13.414;2023-09-18T09:28:00;5.32;;;3.70;;
35648;SDS011;21768;48.562;13.414;2023-09-18T09:30:28;4.53;;;3.67;;
35648;SDS011;21768;48.562;13.414;2023-09-18T09:32:56;6.53;;;4.03;;
35648;SDS011;21768;48.562;13.414;2023-09-18T09:35:29;3.75;;;3.38;;
35648;SDS011;21768;48.562;13.414;2023-09-18T09:38:11;5.85;;;3.72;;
35648;SDS011;21768;48.562;13.414;2023-09-18T09:40:40;4.97;;;3.58;;
35648;SDS011;21768;48.562;13.414;2023-09-18T09:43:12;3.50;;;3.13;;
35648;SDS011;21768;48.562;13.414;2023-09-18T09:45:40;4.82;;;3.17;;
35648;SDS011;21768;48.562;13.414;2023-09-18T09:48:06;9.98;;;3.80;;
35648;SDS011;21768;48.562;13.414;2023-09-18T09:50:33;4.70;;;3.55;;
35648;SDS011;21768;48.562;13.414;2023-09-18T09:53:10;6.80;;;3.40;;
35648;SDS011;21768;48.562;13.414;2023-09-18T09:55:36;5.05;;;3.05;;
35648;SDS011;21768;48.562;13.414;2023-09-18T09:58:04;7.05;;;3.35;;
35648;SDS011;21768;48.562;13.414;2023-09-18T10:00:50;8.63;;;3.35;;
35648;SDS011;21768;48.562;13.414;2023-09-18T10:03:20;6.70;;;3.22;;
35648;SDS011;21768;48.562;13.414;2023-09-18T10:05:47;5.18;;;3.17;;
35648;SDS011;21768;48.562;13.414;2023-09-18T10:08:19;4.47;;;2.88;;
35648;SDS011;21768;48.562;13.414;2023-09-18T10:10:48;6.22;;;3.20;;
35648;SDS011;21768;48.562;13.414;2023-09-18T10:14:02;6.22;;;3.25;;
35648;SDS011;21768;48.562;13.414;2023-09-18T10:16:32;4.25;;;2.92;;
35648;SDS011;21768;48.562;13.414;2023-09-18T10:24:09;5.00;;;2.90;;
35648;SDS011;21768;48.562;13.414;2023-09-18T10:26:46;6.30;;;3.33;;
35648;SDS011;21768;48.562;13.414;2023-09-18T10:29:16;3.10;;;2.80;;
35648;SDS011;21768;48.562;13.414;2023-09-18T10:31:44;5.68;;;2.85;;
35648;SDS011;21768;48.562;13.414;2023-09-18T10:34:12;4.57;;;3.10;;
35648;SDS011;21768;48.562;13.414;2023-09-18T10:36:39;3.03;;;2.72;;
35648;SDS011;21768;48.562;13.414;2023-09-18T10:39:06;6.63;;;3.22;;
35648;SDS011;21768;48.562;13.414;2023-09-18T10:41:37;4.63;;;2.85;;
35648;SDS011;21768;48.562;13.414;2023-09-18T10:44:04;6.65;;;2.67;;
35648;SDS011;21768;48.562;13.414;2023-09-18T10:46:30;4.25;;;2.70;;
35648;SDS011;21768;48.562;13.414;2023-09-18T10:48:57;5.72;;;2.78;;
35648;SDS011;21768;48.562;13.414;2023-09-18T10:51:24;4.35;;;3.40;;
35648;SDS011;21768;48.562;13.414;2023-09-18T10:53:50;3.42;;;2.83;;
35648;SDS011;21768;48.562;13.414;2023-09-18T10:56:19;3.13;;;2.80;;
35648;SDS011;21768;48.562;13.414;2023-09-18T10:58:45;4.53;;;2.92;;
35648;SDS011;21768;48.562;13.414;2023-09-18T11:01:11;5.38;;;2.67;;
35648;SDS011;21768;48.562;13.414;2023-09-18T11:03:38;9.25;;;3.17;;
35648;SDS011;21768;48.562;13.414;2023-09-18T11:06:04;7.40;;;3.40;;
35648;SDS011;21768;48.562;13.414;2023-09-18T11:13:31;5.18;;;3.20;;
35648;SDS011;21768;48.562;13.414;2023-09-18T11:18:42;7.30;;;3.60;;
35648;SDS011;21768;48.562;13.414;2023-09-18T11:21:11;4.18;;;3.10;;
35648;SDS011;21768;48.562;13.414;2023-09-18T11:23:38;10.73;;;3.38;;
35648;SDS011;21768;48.562;13.414;2023-09-18T11:26:08;8.55;;;3.10;;
35648;SDS011;21768;48.562;13.414;2023-09-18T11:28:35;9.93;;;3.95;;
35648;SDS011;21768;48.562;13.414;2023-09-18T11:31:02;8.40;;;3.00;;
35648;SDS011;21768;48.562;13.414;2023-09-18T11:33:38;6.35;;;3.20;;
35648;SDS011;21768;48.562;13.414;2023-09-18T11:38:33;4.85;;;3.00;;
35648;SDS011;21768;48.562;13.414;2023-09-18T11:41:01;8.65;;;3.10;;
35648;SDS011;21768;48.562;13.414;2023-09-18T11:43:45;4.78;;;2.95;;
35648;SDS011;21768;48.562;13.414;2023-09-18T11:46:10;7.53;;;3.25;;
35648;SDS011;21768;48.562;13.414;2023-09-18T11:48:37;7.18;;;2.90;;
35648;SDS011;21768;48.562;13.414;2023-09-18T11:51:06;9.40;;;3.35;;
35648;SDS011;21768;48.562;13.414;2023-09-18T11:53:36;8.65;;;2.95;;
35648;SDS011;21768;48.562;13.414;2023-09-18T11:56:09;6.00;;;3.10;;
35648;SDS011;21768;48.562;13.414;2023-09-18T11:58:48;8.68;;;3.13;;
35648;SDS011;21768;48.562;13.414;2023-09-18T12:01:15;4.65;;;3.38;;
35648;SDS011;21768;48.562;13.414;2023-09-18T12:03:42;5.65;;;3.05;;
35648;SDS011;21768;48.562;13.414;2023-09-18T12:06:08;10.00;;;3.42;;
35648;SDS011;21768;48.562;13.414;2023-09-18T12:08:35;7.78;;;3.30;;
35648;SDS011;21768;48.562;13.414;2023-09-18T12:11:01;7.95;;;2.88;;
35648;SDS011;21768;48.562;13.414;2023-09-18T12:13:30;7.88;;;3.28;;
35648;SDS011;21768;48.562;13.414;2023-09-18T12:16:00;6.80;;;3.05;;
35648;SDS011;21768;48.562;13.414;2023-09-18T12:18:34;4.95;;;3.30;;
35648;SDS011;21768;48.562;13.414;2023-09-18T12:21:02;6.88;;;2.90;;
35648;SDS011;21768;48.562;13.414;2023-09-18T12:23:40;5.68;;;2.97;;
35648;SDS011;21768;48.562;13.414;2023-09-18T12:26:12;10.63;;;3.30;;
35648;SDS011;21768;48.562;13.414;2023-09-18T12:28:39;5.55;;;3.13;;
35648;SDS011;21768;48.562;13.414;2023-09-18T12:31:06;7.25;;;3.20;;
35648;SDS011;21768;48.562;13.414;2023-09-18T12:33:36;6.65;;;3.38;;
35648;SDS011;21768;48.562;13.414;2023-09-18T12:36:03;6.35;;;3.53;;
35648;SDS011;21768;48.562;13.414;2023-09-18T12:38:30;7.72;;;3.60;;
35648;SDS011;21768;48.562;13.414;2023-09-18T12:40:55;4.95;;;3.33;;
35648;SDS011;21768;48.562;13.414;2023-09-18T12:43:23;7.75;;;4.03;;
35648;SDS011;21768;48.562;13.414;2023-09-18T12:45:50;5.20;;;3.88;;
35648;SDS011;21768;48.562;13.414;2023-09-18T12:48:16;6.72;;;3.25;;
35648;SDS011;21768;48.562;13.414;2023-09-18T12:50:41;5.38;;;3.45;;
35648;SDS011;21768;48.562;13.414;2023-09-18T12:53:11;6.50;;;3.45;;
35648;SDS011;21768;48.562;13.414;2023-09-18T12:55:37;10.30;;;4.00;;
35648;SDS011;21768;48.562;13.414;2023-09-18T12:58:03;6.97;;;3.58;;
35648;SDS011;21768;48.562;13.414;2023-09-18T13:00:33;11.55;;;3.78;;
35648;SDS011;21768;48.562;13.414;2023-09-18T13:02:59;7.80;;;4.00;;
35648;SDS011;21768;48.562;13.414;2023-09-18T13:05:25;5.80;;;3.78;;
35648;SDS011;21768;48.562;13.414;2023-09-18T13:08:00;6.25;;;3.28;;
35648;SDS011;21768;48.562;13.414;2023-09-18T13:13:07;12.52;;;3.95;;
35648;SDS011;21768;48.562;13.414;2023-09-18T13:15:41;11.57;;;3.88;;
35648;SDS011;21768;48.562;13.414;2023-09-18T13:18:09;8.43;;;4.10;;
35648;SDS011;21768;48.562;13.414;2023-09-18T13:20:35;12.82;;;3.72;;
35648;SDS011;21768;48.562;13.414;2023-09-18T13:23:01;8.00;;;3.42;;
35648;SDS011;21768;48.562;13.414;2023-09-18T13:28:02;10.70;;;3.90;;
35648;SDS011;21768;48.562;13.414;2023-09-18T13:30:29;13.23;;;4.32;;
35648;SDS011;21768;48.562;13.414;2023-09-18T13:33:03;6.60;;;4.20;;
35648;SDS011;21768;48.562;13.414;2023-09-18T13:35:31;5.43;;;3.83;;
35648;SDS011;21768;48.562;13.414;2023-09-18T13:37:56;10.05;;;4.40;;
35648;SDS011;21768;48.562;13.414;2023-09-18T13:40:22;7.03;;;4.13;;
35648;SDS011;21768;48.562;13.414;2023-09-18T13:42:47;9.32;;;3.75;;
35648;SDS011;21768;48.562;13.414;2023-09-18T13:45:16;8.45;;;3.83;;
35648;SDS011;21768;48.562;13.414;2023-09-18T13:47:41;7.97;;;3.78;;
35648;SDS011;21768;48.562;13.414;2023-09-18T13:50:07;20.08;;;4.63;;
35648;SDS011;21768;48.562;13.414;2023-09-18T13:52:33;8.52;;;3.53;;
35648;SDS011;21768;48.562;13.414;2023-09-18T13:55:00;11.52;;;4.18;;
35648;SDS011;21768;48.562;13.414;2023-09-18T13:57:30;8.65;;;4.22;;
35648;SDS011;21768;48.562;13.414;2023-09-18T13:59:59;7.40;;;4.25;;
35648;SDS011;21768;48.562;13.414;2023-09-18T14:02:25;8.90;;;3.33;;
35648;SDS011;21768;48.562;13.414;2023-09-18T14:04:52;11.10;;;4.00;;
35648;SDS011;21768;48.562;13.414;2023-09-18T14:07:19;15.75;;;4.30;;
35648;SDS011;21768;48.562;13.414;2023-09-18T14:09:44;15.35;;;4.07;;
35648;SDS011;21768;48.562;13.414;2023-09-18T14:12:11;16.80;;;3.50;;
35648;SDS011;21768;48.562;13.414;2023-09-18T14:14:36;14.43;;;3.45;;
35648;SDS011;21768;48.562;13.414;2023-09-18T14:17:02;13.48;;;3.88;;
35648;SDS011;21768;48.562;13.414;2023-09-18T14:19:29;14.07;;;3.65;;
35648;SDS011;21768;48.562;13.414;2023-09-18T14:21:54;15.32;;;3.40;;
35648;SDS011;21768;48.562;13.414;2023-09-18T14:24:20;13.70;;;3.45;;
35648;SDS011;21768;48.562;13.414;2023-09-18T14:26:49;12.43;;;3.10;;
35648;SDS011;21768;48.562;13.414;2023-09-18T14:29:15;10.98;;;3.35;;
35648;SDS011;21768;48.562;13.414;2023-09-18T14:31:40;12.88;;;3.55;;
35648;SDS011;21768;48.562;13.414;2023-09-18T14:34:06;16.13;;;3.38;;
35648;SDS011;21768;48.562;13.414;2023-09-18T14:36:36;18.83;;;3.22;;
35648;SDS011;21768;48.562;13.414;2023-09-18T14:39:04;25.13;;;3.80;;
35648;SDS011;21768;48.562;13.414;2023-09-18T14:41:29;24.55;;;3.88;;
35648;SDS011;21768;48.562;13.414;2023-09-18T14:43:55;18.58;;;3.30;;
35648;SDS011;21768;48.562;13.414;2023-09-18T14:46:23;14.80;;;3.40;;
35648;SDS011;21768;48.562;13.414;2023-09-18T14:48:48;14.32;;;3.20;;
35648;SDS011;21768;48.562;13.414;2023-09-18T14:51:13;14.10;;;4.00;;
35648;SDS011;21768;48.562;13.414;2023-09-18T14:53:39;15.00;;;3.25;;